sensor_id;sensor_type;location;lat;lon;timestamp;P1;durP1;ratioP1;P2;durP2;ratioP2
19519;SDS011;9904;52.246;20.898;2023-05-24T00:01:58;8.50;;;5.23;;
19519;SDS011;9904;52.246;20.898;2023-05-24T00:04:25;9.80;;;4.80;;
19519;SDS011;9904;52.246;20.898;2023-05-24T00:06:55;9.47;;;5.00;;
19519;SDS011;9904;52.246;20.898;2023-05-24T00:09:23;11.87;;;5.77;;
19519;SDS011;9904;52.246;20.898;2023-05-24T00:11:49;10.67;;;4.87;;
19519;SDS011;9904;52.246;20.898;2023-05-24T00:14:16;10.17;;;4.40;;
19519;SDS011;9904;52.246;20.898;2023-05-24T00:16:42;13.80;;;5.00;;
19519;SDS011;9904;52.246;20.898;2023-05-24T00:19:11;12.20;;;4.80;;
19519;SDS011;9904;52.246;20.898;2023-05-24T00:21:44;11.33;;;5.20;;
19519;SDS011;9904;52.246;20.898;2023-05-24T00:24:11;8.87;;;4.67;;
19519;SDS011;9904;52.246;20.898;2023-05-24T00:26:37;10.63;;;5.10;;
19519;SDS011;9904;52.246;20.898;2023-05-24T00:29:04;8.73;;;4.50;;
19519;SDS011;9904;52.246;20.898;2023-05-24T00:31:31;15.50;;;4.80;;
19519;SDS011;9904;52.246;20.898;2023-05-24T00:33:57;19.10;;;5.03;;
19519;SDS011;9904;52.246;20.898;2023-05-24T00:36:24;10.63;;;4.53;;
19519;SDS011;9904;52.246;20.898;2023-05-24T00:38:51;12.67;;;4.37;;
19519;SDS011;9904;52.246;20.898;2023-05-24T00:41:18;11.23;;;4.50;;
19519;SDS011;9904;52.246;20.898;2023-05-24T00:43:45;12.60;;;4.43;;
19519;SDS011;9904;52.246;20.898;2023-05-24T00:46:13;12.97;;;5.00;;
19519;SDS011;9904;52.246;20.898;2023-05-24T00:48:42;10.70;;;4.83;;
19519;SDS011;9904;52.246;20.898;2023-05-24T00:51:10;14.83;;;5.30;;
19519;SDS011;9904;52.246;20.898;2023-05-24T00:53:37;11.27;;;4.40;;
19519;SDS011;9904;52.246;20.898;2023-05-24T00:56:05;7.83;;;4.60;;
19519;SDS011;9904;52.246;20.898;2023-05-24T00:58:32;7.47;;;4.40;;
19519;SDS011;9904;52.246;20.898;2023-05-24T01:01:00;11.83;;;4.83;;
19519;SDS011;9904;52.246;20.898;2023-05-24T01:03:28;10.17;;;5.00;;
19519;SDS011;9904;52.246;20.898;2023-05-24T01:05:55;9.40;;;4.13;;
19519;SDS011;9904;52.246;20.898;2023-05-24T01:11:20;13.40;;;4.57;;
19519;SDS011;9904;52.246;20.898;2023-05-24T01:13:52;10.07;;;4.93;;
19519;SDS011;9904;52.246;20.898;2023-05-24T01:16:26;6.43;;;4.20;;
19519;SDS011;9904;52.246;20.898;2023-05-24T01:18:59;8.83;;;4.90;;
19519;SDS011;9904;52.246;20.898;2023-05-24T01:29:32;13.07;;;4.83;;
19519;SDS011;9904;52.246;20.898;2023-05-24T01:32:00;9.20;;;4.50;;
19519;SDS011;9904;52.246;20.898;2023-05-24T01:34:27;8.10;;;4.50;;
19519;SDS011;9904;52.246;20.898;2023-05-24T01:36:55;8.97;;;4.80;;
19519;SDS011;9904;52.246;20.898;2023-05-24T01:39:21;6.43;;;4.40;;
19519;SDS011;9904;52.246;20.898;2023-05-24T01:41:55;10.53;;;4.53;;
19519;SDS011;9904;52.246;20.898;2023-05-24T01:47:01;10.33;;;4.77;;
19519;SDS011;9904;52.246;20.898;2023-05-24T01:49:35;9.97;;;5.00;;
19519;SDS011;9904;52.246;20.898;2023-05-24T01:52:05;9.97;;;5.00;;
19519;SDS011;9904;52.246;20.898;2023-05-24T01:54:36;9.23;;;4.77;;
19519;SDS011;9904;52.246;20.898;2023-05-24T01:57:06;13.50;;;4.50;;
19519;SDS011;9904;52.246;20.898;2023-05-24T01:59:34;11.17;;;4.87;;
19519;SDS011;9904;52.246;20.898;2023-05-24T02:02:01;9.33;;;5.07;;
19519;SDS011;9904;52.246;20.898;2023-05-24T02:04:28;8.43;;;4.67;;
19519;SDS011;9904;52.246;20.898;2023-05-24T02:06:55;11.20;;;4.47;;
19519;SDS011;9904;52.246;20.898;2023-05-24T02:09:21;15.13;;;5.90;;
19519;SDS011;9904;52.246;20.898;2023-05-24T02:11:48;9.67;;;4.53;;
19519;SDS011;9904;52.246;20.898;2023-05-24T02:14:14;8.63;;;4.77;;
19519;SDS011;9904;52.246;20.898;2023-05-24T02:16:42;11.60;;;5.30;;
19519;SDS011;9904;52.246;20.898;2023-05-24T02:19:12;9.87;;;4.77;;
19519;SDS011;9904;52.246;20.898;2023-05-24T02:21:39;9.70;;;4.57;;
19519;SDS011;9904;52.246;20.898;2023-05-24T02:24:06;8.77;;;4.63;;
19519;SDS011;9904;52.246;20.898;2023-05-24T02:26:33;6.30;;;4.70;;
19519;SDS011;9904;52.246;20.898;2023-05-24T02:28:59;12.23;;;4.93;;
19519;SDS011;9904;52.246;20.898;2023-05-24T02:31:26;13.23;;;4.27;;
19519;SDS011;9904;52.246;20.898;2023-05-24T02:33:54;8.53;;;4.50;;
19519;SDS011;9904;52.246;20.898;2023-05-24T02:36:21;12.47;;;4.53;;
19519;SDS011;9904;52.246;20.898;2023-05-24T02:38:49;10.30;;;4.70;;
19519;SDS011;9904;52.246;20.898;2023-05-24T02:41:16;8.77;;;4.77;;
19519;SDS011;9904;52.246;20.898;2023-05-24T02:43:44;12.63;;;5.20;;
19519;SDS011;9904;52.246;20.898;2023-05-24T02:46:11;9.27;;;4.57;;
19519;SDS011;9904;52.246;20.898;2023-05-24T02:48:38;12.10;;;5.13;;
19519;SDS011;9904;52.246;20.898;2023-05-24T02:51:05;12.00;;;4.53;;
19519;SDS011;9904;52.246;20.898;2023-05-24T02:53:32;12.07;;;4.57;;
19519;SDS011;9904;52.246;20.898;2023-05-24T02:55:58;12.30;;;4.77;;
19519;SDS011;9904;52.246;20.898;2023-05-24T02:58:25;11.70;;;4.73;;
19519;SDS011;9904;52.246;20.898;2023-05-24T03:00:55;10.40;;;4.57;;
19519;SDS011;9904;52.246;20.898;2023-05-24T03:03:22;8.70;;;5.33;;
19519;SDS011;9904;52.246;20.898;2023-05-24T03:05:48;9.87;;;4.77;;
19519;SDS011;9904;52.246;20.898;2023-05-24T03:08:15;14.70;;;4.87;;
19519;SDS011;9904;52.246;20.898;2023-05-24T03:10:41;9.67;;;4.87;;
19519;SDS011;9904;52.246;20.898;2023-05-24T03:13:09;9.53;;;4.67;;
19519;SDS011;9904;52.246;20.898;2023-05-24T03:15:35;12.07;;;5.03;;
19519;SDS011;9904;52.246;20.898;2023-05-24T03:18:02;11.90;;;4.90;;
19519;SDS011;9904;52.246;20.898;2023-05-24T03:20:29;15.60;;;5.00;;
19519;SDS011;9904;52.246;20.898;2023-05-24T03:22:56;8.13;;;4.53;;
19519;SDS011;9904;52.246;20.898;2023-05-24T03:25:23;9.77;;;4.50;;
19519;SDS011;9904;52.246;20.898;2023-05-24T03:27:49;10.63;;;4.70;;
19519;SDS011;9904;52.246;20.898;2023-05-24T03:30:16;14.37;;;5.57;;
19519;SDS011;9904;52.246;20.898;2023-05-24T03:32:42;13.50;;;4.50;;
19519;SDS011;9904;52.246;20.898;2023-05-24T03:35:09;10.90;;;4.87;;
19519;SDS011;9904;52.246;20.898;2023-05-24T03:37:37;10.17;;;4.93;;
19519;SDS011;9904;52.246;20.898;2023-05-24T03:40:04;9.27;;;4.63;;
19519;SDS011;9904;52.246;20.898;2023-05-24T03:42:31;10.97;;;4.80;;
19519;SDS011;9904;52.246;20.898;2023-05-24T03:44:58;8.63;;;4.70;;
19519;SDS011;9904;52.246;20.898;2023-05-24T03:47:25;13.83;;;4.80;;
19519;SDS011;9904;52.246;20.898;2023-05-24T03:49:51;8.63;;;4.93;;
19519;SDS011;9904;52.246;20.898;2023-05-24T03:52:18;11.00;;;4.63;;
19519;SDS011;9904;52.246;20.898;2023-05-24T03:54:45;10.90;;;4.33;;
19519;SDS011;9904;52.246;20.898;2023-05-24T03:57:11;9.27;;;4.90;;
19519;SDS011;9904;52.246;20.898;2023-05-24T03:59:38;11.07;;;5.27;;
19519;SDS011;9904;52.246;20.898;2023-05-24T04:02:06;13.77;;;5.50;;
19519;SDS011;9904;52.246;20.898;2023-05-24T04:04:33;8.33;;;4.23;;
19519;SDS011;9904;52.246;20.898;2023-05-24T04:07:00;12.57;;;4.97;;
19519;SDS011;9904;52.246;20.898;2023-05-24T04:09:26;8.17;;;4.57;;
19519;SDS011;9904;52.246;20.898;2023-05-24T04:11:53;16.50;;;5.30;;
19519;SDS011;9904;52.246;20.898;2023-05-24T04:14:19;11.80;;;4.90;;
19519;SDS011;9904;52.246;20.898;2023-05-24T04:16:47;10.03;;;5.13;;
19519;SDS011;9904;52.246;20.898;2023-05-24T04:19:13;10.57;;;5.23;;
19519;SDS011;9904;52.246;20.898;2023-05-24T04:21:40;14.00;;;4.43;;
19519;SDS011;9904;52.246;20.898;2023-05-24T04:24:06;12.73;;;4.90;;
19519;SDS011;9904;52.246;20.898;2023-05-24T04:26:33;11.53;;;4.93;;
19519;SDS011;9904;52.246;20.898;2023-05-24T04:29:00;17.37;;;5.30;;
19519;SDS011;9904;52.246;20.898;2023-05-24T04:31:27;10.63;;;4.23;;
19519;SDS011;9904;52.246;20.898;2023-05-24T04:33:55;11.40;;;4.90;;
19519;SDS011;9904;52.246;20.898;2023-05-24T04:36:24;12.37;;;4.70;;
19519;SDS011;9904;52.246;20.898;2023-05-24T04:38:51;15.93;;;5.30;;
19519;SDS011;9904;52.246;20.898;2023-05-24T04:41:22;12.23;;;4.80;;
19519;SDS011;9904;52.246;20.898;2023-05-24T04:43:49;16.70;;;5.10;;
19519;SDS011;9904;52.246;20.898;2023-05-24T04:46:16;13.83;;;4.50;;
19519;SDS011;9904;52.246;20.898;2023-05-24T04:48:42;9.13;;;4.70;;
19519;SDS011;9904;52.246;20.898;2023-05-24T04:51:09;13.53;;;4.67;;
19519;SDS011;9904;52.246;20.898;2023-05-24T04:53:36;12.33;;;4.23;;
19519;SDS011;9904;52.246;20.898;2023-05-24T04:56:03;13.17;;;5.23;;
19519;SDS011;9904;52.246;20.898;2023-05-24T04:58:30;19.80;;;5.63;;
19519;SDS011;9904;52.246;20.898;2023-05-24T05:00:57;11.53;;;4.73;;
19519;SDS011;9904;52.246;20.898;2023-05-24T05:03:23;10.37;;;5.00;;
19519;SDS011;9904;52.246;20.898;2023-05-24T05:05:50;9.40;;;4.90;;
19519;SDS011;9904;52.246;20.898;2023-05-24T05:08:16;7.10;;;4.33;;
19519;SDS011;9904;52.246;20.898;2023-05-24T05:10:43;13.70;;;4.97;;
19519;SDS011;9904;52.246;20.898;2023-05-24T05:13:10;11.40;;;5.30;;
19519;SDS011;9904;52.246;20.898;2023-05-24T05:15:36;14.77;;;5.47;;
19519;SDS011;9904;52.246;20.898;2023-05-24T05:18:03;12.40;;;4.90;;
19519;SDS011;9904;52.246;20.898;2023-05-24T05:20:29;12.93;;;4.90;;
19519;SDS011;9904;52.246;20.898;2023-05-24T05:22:56;12.10;;;4.77;;
19519;SDS011;9904;52.246;20.898;2023-05-24T05:25:23;13.60;;;5.07;;
19519;SDS011;9904;52.246;20.898;2023-05-24T05:27:49;16.47;;;5.27;;
19519;SDS011;9904;52.246;20.898;2023-05-24T05:30:16;13.93;;;4.73;;
19519;SDS011;9904;52.246;20.898;2023-05-24T05:32:43;16.90;;;5.07;;
19519;SDS011;9904;52.246;20.898;2023-05-24T05:35:09;9.40;;;4.37;;
19519;SDS011;9904;52.246;20.898;2023-05-24T05:37:36;13.23;;;4.70;;
19519;SDS011;9904;52.246;20.898;2023-05-24T05:40:03;9.70;;;4.80;;
19519;SDS011;9904;52.246;20.898;2023-05-24T05:42:29;14.03;;;5.33;;
19519;SDS011;9904;52.246;20.898;2023-05-24T05:44:56;16.23;;;5.30;;
19519;SDS011;9904;52.246;20.898;2023-05-24T05:47:23;16.27;;;5.10;;
19519;SDS011;9904;52.246;20.898;2023-05-24T05:49:49;10.87;;;4.93;;
19519;SDS011;9904;52.246;20.898;2023-05-24T05:52:16;13.47;;;5.20;;
19519;SDS011;9904;52.246;20.898;2023-05-24T05:54:42;13.53;;;5.13;;
19519;SDS011;9904;52.246;20.898;2023-05-24T05:57:12;10.77;;;4.67;;
19519;SDS011;9904;52.246;20.898;2023-05-24T05:59:38;13.13;;;4.93;;
19519;SDS011;9904;52.246;20.898;2023-05-24T06:02:05;11.47;;;4.90;;
19519;SDS011;9904;52.246;20.898;2023-05-24T06:04:32;8.90;;;4.63;;
19519;SDS011;9904;52.246;20.898;2023-05-24T06:06:59;10.70;;;5.13;;
19519;SDS011;9904;52.246;20.898;2023-05-24T06:09:26;13.50;;;5.07;;
19519;SDS011;9904;52.246;20.898;2023-05-24T06:11:53;17.33;;;5.30;;
19519;SDS011;9904;52.246;20.898;2023-05-24T06:14:19;15.73;;;5.00;;
19519;SDS011;9904;52.246;20.898;2023-05-24T06:16:50;18.07;;;5.10;;
19519;SDS011;9904;52.246;20.898;2023-05-24T06:19:19;11.15;;;5.15;;
19519;SDS011;9904;52.246;20.898;2023-05-24T06:21:47;19.08;;;4.95;;
19519;SDS011;9904;52.246;20.898;2023-05-24T06:24:15;16.65;;;4.57;;
19519;SDS011;9904;52.246;20.898;2023-05-24T06:26:47;13.02;;;5.28;;
19519;SDS011;9904;52.246;20.898;2023-05-24T06:29:15;13.75;;;4.60;;
19519;SDS011;9904;52.246;20.898;2023-05-24T06:31:44;9.40;;;5.30;;
19519;SDS011;9904;52.246;20.898;2023-05-24T06:34:13;12.52;;;4.93;;
19519;SDS011;9904;52.246;20.898;2023-05-24T06:36:43;12.93;;;4.93;;
19519;SDS011;9904;52.246;20.898;2023-05-24T06:39:12;10.80;;;4.95;;
19519;SDS011;9904;52.246;20.898;2023-05-24T06:41:39;9.85;;;4.80;;
19519;SDS011;9904;52.246;20.898;2023-05-24T06:44:07;12.27;;;5.03;;
19519;SDS011;9904;52.246;20.898;2023-05-24T06:46:34;13.35;;;4.45;;
19519;SDS011;9904;52.246;20.898;2023-05-24T06:49:01;10.68;;;5.00;;
19519;SDS011;9904;52.246;20.898;2023-05-24T06:51:29;16.33;;;5.07;;
19519;SDS011;9904;52.246;20.898;2023-05-24T06:53:56;19.43;;;5.00;;
19519;SDS011;9904;52.246;20.898;2023-05-24T06:56:23;11.40;;;5.07;;
19519;SDS011;9904;52.246;20.898;2023-05-24T06:58:49;12.77;;;5.05;;
19519;SDS011;9904;52.246;20.898;2023-05-24T07:01:16;15.50;;;5.13;;
19519;SDS011;9904;52.246;20.898;2023-05-24T07:03:43;13.80;;;4.90;;
19519;SDS011;9904;52.246;20.898;2023-05-24T07:06:10;16.98;;;5.22;;
19519;SDS011;9904;52.246;20.898;2023-05-24T07:08:39;11.50;;;5.93;;
19519;SDS011;9904;52.246;20.898;2023-05-24T07:11:09;12.93;;;5.00;;
19519;SDS011;9904;52.246;20.898;2023-05-24T07:13:36;9.80;;;4.63;;
19519;SDS011;9904;52.246;20.898;2023-05-24T07:16:02;13.30;;;4.72;;
19519;SDS011;9904;52.246;20.898;2023-05-24T07:18:29;14.80;;;4.57;;
19519;SDS011;9904;52.246;20.898;2023-05-24T07:20:56;12.15;;;4.30;;
19519;SDS011;9904;52.246;20.898;2023-05-24T07:23:22;12.95;;;4.38;;
19519;SDS011;9904;52.246;20.898;2023-05-24T07:25:49;19.48;;;5.35;;
19519;SDS011;9904;52.246;20.898;2023-05-24T07:28:16;15.05;;;5.32;;
19519;SDS011;9904;52.246;20.898;2023-05-24T07:30:45;10.57;;;4.80;;
19519;SDS011;9904;52.246;20.898;2023-05-24T07:33:12;8.85;;;4.78;;
19519;SDS011;9904;52.246;20.898;2023-05-24T07:35:39;10.35;;;4.60;;
19519;SDS011;9904;52.246;20.898;2023-05-24T07:38:05;7.35;;;4.57;;
19519;SDS011;9904;52.246;20.898;2023-05-24T07:40:32;11.40;;;4.65;;
19519;SDS011;9904;52.246;20.898;2023-05-24T07:43:00;15.65;;;4.65;;
19519;SDS011;9904;52.246;20.898;2023-05-24T07:45:29;11.32;;;5.35;;
19519;SDS011;9904;52.246;20.898;2023-05-24T07:47:56;12.35;;;4.82;;
19519;SDS011;9904;52.246;20.898;2023-05-24T07:50:23;13.35;;;4.88;;
19519;SDS011;9904;52.246;20.898;2023-05-24T07:52:50;11.32;;;5.03;;
19519;SDS011;9904;52.246;20.898;2023-05-24T07:57:12;15.55;;;4.90;;
19519;SDS011;9904;52.246;20.898;2023-05-24T07:59:40;15.18;;;4.50;;
19519;SDS011;9904;52.246;20.898;2023-05-24T08:02:06;11.53;;;4.70;;
19519;SDS011;9904;52.246;20.898;2023-05-24T08:04:36;15.68;;;5.18;;
19519;SDS011;9904;52.246;20.898;2023-05-24T08:07:03;12.20;;;5.07;;
19519;SDS011;9904;52.246;20.898;2023-05-24T08:11:14;15.93;;;5.33;;
19519;SDS011;9904;52.246;20.898;2023-05-24T08:14:08;17.65;;;4.85;;
19519;SDS011;9904;52.246;20.898;2023-05-24T08:16:34;16.15;;;5.53;;
19519;SDS011;9904;52.246;20.898;2023-05-24T08:48:28;11.98;;;4.85;;
19519;SDS011;9904;52.246;20.898;2023-05-24T08:50:56;14.47;;;4.93;;
19519;SDS011;9904;52.246;20.898;2023-05-24T08:53:23;17.40;;;5.28;;
19519;SDS011;9904;52.246;20.898;2023-05-24T08:55:50;11.48;;;5.22;;
19519;SDS011;9904;52.246;20.898;2023-05-24T08:58:21;12.20;;;5.28;;
19519;SDS011;9904;52.246;20.898;2023-05-24T09:00:48;13.55;;;5.07;;
19519;SDS011;9904;52.246;20.898;2023-05-24T09:03:15;20.95;;;5.95;;
19519;SDS011;9904;52.246;20.898;2023-05-24T09:05:43;12.77;;;4.57;;
19519;SDS011;9904;52.246;20.898;2023-05-24T09:08:10;13.05;;;4.82;;
19519;SDS011;9904;52.246;20.898;2023-05-24T09:10:38;9.93;;;5.18;;
19519;SDS011;9904;52.246;20.898;2023-05-24T09:13:20;17.65;;;5.13;;
19519;SDS011;9904;52.246;20.898;2023-05-24T09:15:48;22.33;;;5.78;;
19519;SDS011;9904;52.246;20.898;2023-05-24T09:18:15;15.93;;;5.03;;
19519;SDS011;9904;52.246;20.898;2023-05-24T09:20:42;17.07;;;5.27;;
19519;SDS011;9904;52.246;20.898;2023-05-24T09:23:09;13.77;;;5.33;;
19519;SDS011;9904;52.246;20.898;2023-05-24T09:25:39;20.13;;;6.30;;
19519;SDS011;9904;52.246;20.898;2023-05-24T09:28:10;20.17;;;5.40;;
19519;SDS011;9904;52.246;20.898;2023-05-24T09:30:38;18.50;;;5.72;;
19519;SDS011;9904;52.246;20.898;2023-05-24T09:33:05;12.00;;;4.83;;
19519;SDS011;9904;52.246;20.898;2023-05-24T09:35:33;13.70;;;5.20;;
19519;SDS011;9904;52.246;20.898;2023-05-24T09:38:02;15.05;;;4.45;;
19519;SDS011;9904;52.246;20.898;2023-05-24T09:40:29;19.57;;;5.20;;
19519;SDS011;9904;52.246;20.898;2023-05-24T09:43:05;16.50;;;4.95;;
19519;SDS011;9904;52.246;20.898;2023-05-24T09:45:40;19.92;;;5.10;;
19519;SDS011;9904;52.246;20.898;2023-05-24T09:48:12;22.23;;;5.57;;
19519;SDS011;9904;52.246;20.898;2023-05-24T09:50:39;15.30;;;5.72;;
19519;SDS011;9904;52.246;20.898;2023-05-24T09:53:06;12.32;;;5.28;;
19519;SDS011;9904;52.246;20.898;2023-05-24T09:55:36;13.20;;;5.73;;
19519;SDS011;9904;52.246;20.898;2023-05-24T09:58:04;14.88;;;5.32;;
19519;SDS011;9904;52.246;20.898;2023-05-24T10:00:35;13.48;;;5.75;;
19519;SDS011;9904;52.246;20.898;2023-05-24T10:03:06;17.60;;;5.53;;
19519;SDS011;9904;52.246;20.898;2023-05-24T10:05:34;13.25;;;5.70;;
19519;SDS011;9904;52.246;20.898;2023-05-24T10:08:01;25.60;;;5.50;;
19519;SDS011;9904;52.246;20.898;2023-05-24T10:10:31;17.67;;;5.97;;
19519;SDS011;9904;52.246;20.898;2023-05-24T10:12:58;18.83;;;6.90;;
19519;SDS011;9904;52.246;20.898;2023-05-24T10:15:27;14.20;;;5.03;;
19519;SDS011;9904;52.246;20.898;2023-05-24T10:17:55;14.93;;;5.70;;
19519;SDS011;9904;52.246;20.898;2023-05-24T10:20:22;17.83;;;5.40;;
19519;SDS011;9904;52.246;20.898;2023-05-24T10:22:59;20.00;;;6.23;;
19519;SDS011;9904;52.246;20.898;2023-05-24T10:25:27;14.57;;;6.13;;
19519;SDS011;9904;52.246;20.898;2023-05-24T10:27:56;20.25;;;6.05;;
19519;SDS011;9904;52.246;20.898;2023-05-24T10:30:32;21.50;;;5.80;;
19519;SDS011;9904;52.246;20.898;2023-05-24T10:33:00;17.80;;;6.30;;
19519;SDS011;9904;52.246;20.898;2023-05-24T10:35:27;23.57;;;5.73;;
19519;SDS011;9904;52.246;20.898;2023-05-24T10:37:54;12.13;;;6.20;;
19519;SDS011;9904;52.246;20.898;2023-05-24T10:40:22;15.07;;;6.00;;
19519;SDS011;9904;52.246;20.898;2023-05-24T10:42:52;14.17;;;5.93;;
19519;SDS011;9904;52.246;20.898;2023-05-24T10:47:52;13.93;;;5.57;;
19519;SDS011;9904;52.246;20.898;2023-05-24T10:50:20;13.97;;;5.97;;
19519;SDS011;9904;52.246;20.898;2023-05-24T10:52:47;16.37;;;5.83;;
19519;SDS011;9904;52.246;20.898;2023-05-24T10:55:14;21.93;;;6.53;;
19519;SDS011;9904;52.246;20.898;2023-05-24T10:57:41;15.30;;;5.83;;
19519;SDS011;9904;52.246;20.898;2023-05-24T11:05:58;11.03;;;6.20;;
19519;SDS011;9904;52.246;20.898;2023-05-24T11:08:31;16.88;;;5.90;;
19519;SDS011;9904;52.246;20.898;2023-05-24T11:11:11;15.70;;;5.88;;
19519;SDS011;9904;52.246;20.898;2023-05-24T11:13:41;17.58;;;6.47;;
19519;SDS011;9904;52.246;20.898;2023-05-24T11:16:09;14.23;;;6.20;;
19519;SDS011;9904;52.246;20.898;2023-05-24T11:19:13;11.98;;;6.10;;
19519;SDS011;9904;52.246;20.898;2023-05-24T11:21:43;13.20;;;6.13;;
19519;SDS011;9904;52.246;20.898;2023-05-24T11:24:11;12.85;;;5.35;;
19519;SDS011;9904;52.246;20.898;2023-05-24T11:26:38;19.48;;;5.78;;
19519;SDS011;9904;52.246;20.898;2023-05-24T11:29:06;12.93;;;5.85;;
19519;SDS011;9904;52.246;20.898;2023-05-24T11:31:32;17.02;;;5.85;;
19519;SDS011;9904;52.246;20.898;2023-05-24T11:34:04;14.35;;;5.65;;
19519;SDS011;9904;52.246;20.898;2023-05-24T11:36:32;17.85;;;6.47;;
19519;SDS011;9904;52.246;20.898;2023-05-24T11:38:59;14.30;;;6.10;;
19519;SDS011;9904;52.246;20.898;2023-05-24T11:41:26;13.93;;;6.10;;
19519;SDS011;9904;52.246;20.898;2023-05-24T11:43:53;13.50;;;5.70;;
19519;SDS011;9904;52.246;20.898;2023-05-24T11:46:20;9.73;;;5.50;;
19519;SDS011;9904;52.246;20.898;2023-05-24T11:48:55;16.60;;;6.30;;
19519;SDS011;9904;52.246;20.898;2023-05-24T11:51:25;13.52;;;5.60;;
19519;SDS011;9904;52.246;20.898;2023-05-24T11:53:54;12.35;;;5.40;;
19519;SDS011;9904;52.246;20.898;2023-05-24T11:56:21;14.55;;;5.80;;
19519;SDS011;9904;52.246;20.898;2023-05-24T11:58:48;12.43;;;5.20;;
19519;SDS011;9904;52.246;20.898;2023-05-24T12:01:24;14.13;;;6.22;;
19519;SDS011;9904;52.246;20.898;2023-05-24T12:03:53;10.17;;;6.03;;
19519;SDS011;9904;52.246;20.898;2023-05-24T12:06:20;14.20;;;5.35;;
19519;SDS011;9904;52.246;20.898;2023-05-24T12:08:48;13.05;;;5.95;;
19519;SDS011;9904;52.246;20.898;2023-05-24T12:11:15;10.95;;;5.63;;
19519;SDS011;9904;52.246;20.898;2023-05-24T12:13:42;18.08;;;5.97;;
19519;SDS011;9904;52.246;20.898;2023-05-24T12:16:09;14.98;;;6.13;;
19519;SDS011;9904;52.246;20.898;2023-05-24T12:18:37;16.42;;;5.78;;
19519;SDS011;9904;52.246;20.898;2023-05-24T12:21:16;14.02;;;5.30;;
19519;SDS011;9904;52.246;20.898;2023-05-24T12:23:46;12.77;;;5.32;;
19519;SDS011;9904;52.246;20.898;2023-05-24T12:26:13;15.52;;;5.40;;
19519;SDS011;9904;52.246;20.898;2023-05-24T12:28:44;11.40;;;4.87;;
19519;SDS011;9904;52.246;20.898;2023-05-24T12:31:10;15.95;;;5.30;;
19519;SDS011;9904;52.246;20.898;2023-05-24T12:33:37;19.25;;;5.88;;
19519;SDS011;9904;52.246;20.898;2023-05-24T12:36:05;13.55;;;5.47;;
19519;SDS011;9904;52.246;20.898;2023-05-24T12:38:33;11.32;;;5.57;;
19519;SDS011;9904;52.246;20.898;2023-05-24T12:40:59;13.27;;;5.50;;
19519;SDS011;9904;52.246;20.898;2023-05-24T12:43:38;15.65;;;5.82;;
19519;SDS011;9904;52.246;20.898;2023-05-24T12:46:06;15.00;;;5.78;;
19519;SDS011;9904;52.246;20.898;2023-05-24T12:48:32;15.38;;;5.53;;
19519;SDS011;9904;52.246;20.898;2023-05-24T12:50:59;20.83;;;5.63;;
19519;SDS011;9904;52.246;20.898;2023-05-24T12:53:27;14.63;;;5.35;;
19519;SDS011;9904;52.246;20.898;2023-05-24T12:55:54;9.68;;;5.25;;
19519;SDS011;9904;52.246;20.898;2023-05-24T12:58:21;12.25;;;5.75;;
19519;SDS011;9904;52.246;20.898;2023-05-24T13:00:48;13.85;;;5.68;;
19519;SDS011;9904;52.246;20.898;2023-05-24T13:03:16;13.50;;;5.65;;
19519;SDS011;9904;52.246;20.898;2023-05-24T13:05:43;13.98;;;5.53;;
19519;SDS011;9904;52.246;20.898;2023-05-24T13:08:11;15.57;;;6.13;;
19519;SDS011;9904;52.246;20.898;2023-05-24T13:13:09;16.87;;;6.57;;
19519;SDS011;9904;52.246;20.898;2023-05-24T13:15:37;12.25;;;6.53;;
19519;SDS011;9904;52.246;20.898;2023-05-24T13:18:04;16.52;;;6.53;;
19519;SDS011;9904;52.246;20.898;2023-05-24T13:20:31;12.05;;;6.53;;
19519;SDS011;9904;52.246;20.898;2023-05-24T13:22:58;17.98;;;6.28;;
19519;SDS011;9904;52.246;20.898;2023-05-24T13:25:25;13.48;;;6.00;;
19519;SDS011;9904;52.246;20.898;2023-05-24T13:27:52;17.00;;;6.72;;
19519;SDS011;9904;52.246;20.898;2023-05-24T13:30:19;17.88;;;6.80;;
19519;SDS011;9904;52.246;20.898;2023-05-24T13:32:55;14.98;;;6.20;;
19519;SDS011;9904;52.246;20.898;2023-05-24T13:35:24;21.67;;;6.78;;
19519;SDS011;9904;52.246;20.898;2023-05-24T13:37:50;17.77;;;6.43;;
19519;SDS011;9904;52.246;20.898;2023-05-24T13:40:19;16.13;;;6.13;;
19519;SDS011;9904;52.246;20.898;2023-05-24T13:42:46;10.93;;;6.55;;
19519;SDS011;9904;52.246;20.898;2023-05-24T13:45:12;10.95;;;6.30;;
19519;SDS011;9904;52.246;20.898;2023-05-24T13:47:39;14.75;;;7.28;;
19519;SDS011;9904;52.246;20.898;2023-05-24T13:50:07;12.73;;;6.10;;
19519;SDS011;9904;52.246;20.898;2023-05-24T13:52:34;12.50;;;6.40;;
19519;SDS011;9904;52.246;20.898;2023-05-24T13:55:02;13.52;;;6.53;;
19519;SDS011;9904;52.246;20.898;2023-05-24T13:57:30;24.08;;;7.35;;
19519;SDS011;9904;52.246;20.898;2023-05-24T14:00:16;12.77;;;6.00;;
19519;SDS011;9904;52.246;20.898;2023-05-24T14:02:43;14.48;;;6.03;;
19519;SDS011;9904;52.246;20.898;2023-05-24T14:05:10;15.65;;;6.68;;
19519;SDS011;9904;52.246;20.898;2023-05-24T14:07:52;13.75;;;6.05;;
19519;SDS011;9904;52.246;20.898;2023-05-24T14:10:19;12.68;;;5.75;;
19519;SDS011;9904;52.246;20.898;2023-05-24T14:12:47;17.90;;;6.50;;
19519;SDS011;9904;52.246;20.898;2023-05-24T14:15:33;9.77;;;4.82;;
19519;SDS011;9904;52.246;20.898;2023-05-24T14:18:00;11.13;;;5.20;;
19519;SDS011;9904;52.246;20.898;2023-05-24T14:20:33;14.25;;;5.35;;
19519;SDS011;9904;52.246;20.898;2023-05-24T14:23:02;11.88;;;6.00;;
19519;SDS011;9904;52.246;20.898;2023-05-24T14:25:29;18.40;;;6.33;;
19519;SDS011;9904;52.246;20.898;2023-05-24T14:27:57;19.67;;;7.00;;
19519;SDS011;9904;52.246;20.898;2023-05-24T14:30:26;17.25;;;7.78;;
19519;SDS011;9904;52.246;20.898;2023-05-24T14:32:53;20.17;;;5.95;;
19519;SDS011;9904;52.246;20.898;2023-05-24T14:35:20;16.63;;;6.78;;
19519;SDS011;9904;52.246;20.898;2023-05-24T14:37:47;16.17;;;6.20;;
19519;SDS011;9904;52.246;20.898;2023-05-24T14:40:13;13.70;;;5.95;;
19519;SDS011;9904;52.246;20.898;2023-05-24T14:42:44;12.03;;;5.53;;
19519;SDS011;9904;52.246;20.898;2023-05-24T14:45:11;20.05;;;5.10;;
19519;SDS011;9904;52.246;20.898;2023-05-24T14:47:37;11.77;;;5.13;;
19519;SDS011;9904;52.246;20.898;2023-05-24T14:50:04;8.88;;;4.70;;
19519;SDS011;9904;52.246;20.898;2023-05-24T14:52:31;11.35;;;4.90;;
19519;SDS011;9904;52.246;20.898;2023-05-24T14:54:58;10.95;;;4.90;;
19519;SDS011;9904;52.246;20.898;2023-05-24T14:57:25;8.38;;;4.97;;
19519;SDS011;9904;52.246;20.898;2023-05-24T14:59:51;8.23;;;5.20;;
19519;SDS011;9904;52.246;20.898;2023-05-24T15:02:18;7.97;;;4.72;;
19519;SDS011;9904;52.246;20.898;2023-05-24T15:04:44;8.93;;;4.82;;
19519;SDS011;9904;52.246;20.898;2023-05-24T15:07:11;8.32;;;5.13;;
19519;SDS011;9904;52.246;20.898;2023-05-24T15:09:38;9.93;;;5.00;;
19519;SDS011;9904;52.246;20.898;2023-05-24T15:12:04;10.90;;;4.68;;
19519;SDS011;9904;52.246;20.898;2023-05-24T15:14:32;11.63;;;5.47;;
19519;SDS011;9904;52.246;20.898;2023-05-24T15:16:59;13.23;;;4.80;;
19519;SDS011;9904;52.246;20.898;2023-05-24T15:19:26;7.88;;;4.72;;
19519;SDS011;9904;52.246;20.898;2023-05-24T15:21:53;15.80;;;5.32;;
19519;SDS011;9904;52.246;20.898;2023-05-24T15:24:19;13.55;;;5.40;;
19519;SDS011;9904;52.246;20.898;2023-05-24T15:26:46;17.55;;;6.47;;
19519;SDS011;9904;52.246;20.898;2023-05-24T15:29:13;18.50;;;6.45;;
19519;SDS011;9904;52.246;20.898;2023-05-24T15:31:40;25.10;;;11.18;;
19519;SDS011;9904;52.246;20.898;2023-05-24T15:34:06;26.90;;;10.75;;
19519;SDS011;9904;52.246;20.898;2023-05-24T15:36:33;29.87;;;10.43;;
19519;SDS011;9904;52.246;20.898;2023-05-24T15:39:00;25.30;;;11.50;;